createdAt,value
2018-10-06T00:01:41.818Z,100873.86
2018-10-06T00:04:10.838Z,100876.16
2018-10-06T00:06:39.761Z,100869.13
2018-10-06T00:09:08.982Z,100854.77
2018-10-06T00:11:37.941Z,100866.05
2018-10-06T00:14:06.906Z,100861.39
2018-10-06T00:16:35.845Z,100851.84
2018-10-06T00:19:04.804Z,100862.41
2018-10-06T00:21:33.786Z,100854.92
2018-10-06T00:24:02.765Z,100855.02
2018-10-06T00:26:31.760Z,100844.63
2018-10-06T00:29:00.666Z,100853.91
2018-10-06T00:31:29.614Z,100838.98
2018-10-06T00:33:58.677Z,100830.13
2018-10-06T00:36:27.649Z,100837.95
2018-10-06T00:38:56.642Z,100835.25
2018-10-06T00:41:25.754Z,100840.95
2018-10-06T00:43:54.745Z,100834.22
2018-10-06T00:46:23.749Z,100831.80
2018-10-06T00:48:52.799Z,100821.87
2018-10-06T00:51:21.759Z,100824.02
2018-10-06T00:53:51.348Z,100824.44
2018-10-06T00:56:20.856Z,100814.94
2018-10-06T00:58:49.861Z,100816.28
2018-10-06T01:01:18.853Z,100805.59
2018-10-06T01:03:48.223Z,100807.55
2018-10-06T01:06:17.210Z,100808.77
2018-10-06T01:08:46.170Z,100801.38
2018-10-06T01:11:15.186Z,100801.38
2018-10-06T01:13:44.087Z,100802.92
2018-10-06T01:16:13.082Z,100803.72
2018-10-06T01:18:42.023Z,100801.79
2018-10-06T01:21:10.997Z,100795.64
2018-10-06T01:23:40.091Z,100793.64
2018-10-06T01:26:09.161Z,100792.87
2018-10-06T01:28:38.070Z,100788.11
2018-10-06T01:31:07.275Z,100784.62
2018-10-06T01:33:36.243Z,100781.34
2018-10-06T01:36:05.165Z,100785.48
2018-10-06T01:38:34.626Z,100783.10
2018-10-06T01:41:03.555Z,100782.80
2018-10-06T01:43:33.213Z,100778.92
2018-10-06T01:46:02.225Z,100774.92
2018-10-06T01:48:31.183Z,100781.17
2018-10-06T01:51:00.344Z,100776.72
2018-10-06T01:53:29.274Z,100770.88
2018-10-06T01:55:58.269Z,100775.01
2018-10-06T01:58:27.355Z,100778.84
2018-10-06T02:00:56.411Z,100765.53
2018-10-06T02:03:26.543Z,100765.80
2018-10-06T02:05:55.482Z,100764.73
2018-10-06T02:08:24.496Z,100765.22
2018-10-06T02:10:53.456Z,100758.38
2018-10-06T02:13:22.405Z,100751.84
2018-10-06T02:15:51.394Z,100747.27
2018-10-06T02:18:20.303Z,100750.16
2018-10-06T02:20:49.246Z,100736.46
2018-10-06T02:23:18.223Z,100736.01
2018-10-06T02:25:47.269Z,100735.84
2018-10-06T02:28:16.240Z,100735.15
2018-10-06T02:30:45.165Z,100734.20
2018-10-06T02:33:14.170Z,100726.61
2018-10-06T02:35:43.111Z,100728.09
2018-10-06T02:38:12.099Z,100723.70
2018-10-06T02:40:41.676Z,100720.75
2018-10-06T02:43:10.621Z,100724.49
2018-10-06T02:45:39.580Z,100724.91
2018-10-06T02:48:08.572Z,100718.70
2018-10-06T02:50:37.523Z,100721.60
2018-10-06T02:53:06.721Z,100712.78
2018-10-06T02:55:35.661Z,100716.11
2018-10-06T02:58:04.609Z,100712.06
2018-10-06T03:00:33.553Z,100710.63
2018-10-06T03:03:02.460Z,100709.17
2018-10-06T03:05:31.462Z,100710.24
2018-10-06T03:08:00.556Z,100717.13
2018-10-06T03:10:29.577Z,100708.00
2018-10-06T03:12:58.504Z,100708.75
2018-10-06T03:15:28.219Z,100709.81
2018-10-06T03:17:57.252Z,100708.34
2018-10-06T03:20:26.692Z,100699.02
2018-10-06T03:22:56.869Z,100698.22
2018-10-06T03:25:25.778Z,100694.70
2018-10-06T03:27:54.679Z,100701.16
2018-10-06T03:30:23.646Z,100693.20
2018-10-06T03:32:52.640Z,100689.05
2018-10-06T03:35:21.638Z,100686.99
2018-10-06T03:37:51.269Z,100683.16
2018-10-06T03:40:20.221Z,100681.61
2018-10-06T03:42:49.170Z,100683.83
2018-10-06T03:45:18.223Z,100679.12
2018-10-06T03:47:47.196Z,100669.08
2018-10-06T03:50:16.134Z,100679.24
2018-10-06T03:52:45.109Z,100679.48
2018-10-06T03:55:14.044Z,100680.59
2018-10-06T03:57:42.945Z,100671.53
2018-10-06T04:00:11.876Z,100678.05
2018-10-06T04:02:40.832Z,100666.59
2018-10-06T04:05:09.814Z,100667.81
2018-10-06T04:07:38.789Z,100674.02
2018-10-06T04:10:07.723Z,100670.54
2018-10-06T04:12:36.674Z,100671.16
2018-10-06T04:15:06.031Z,100671.14
2018-10-06T04:17:34.940Z,100665.59
2018-10-06T04:20:03.866Z,100666.34
2018-10-06T04:22:32.850Z,100657.20
2018-10-06T04:25:01.812Z,100653.89
2018-10-06T04:27:30.798Z,100652.89
2018-10-06T04:29:59.780Z,100660.02
2018-10-06T04:32:28.692Z,100666.00
2018-10-06T04:34:57.661Z,100660.69
2018-10-06T04:37:26.642Z,100659.22
2018-10-06T04:39:55.564Z,100653.45
2018-10-06T04:42:24.531Z,100656.19
2018-10-06T04:44:53.449Z,100660.05
2018-10-06T04:47:22.593Z,100661.47
2018-10-06T04:49:51.527Z,100661.23
2018-10-06T04:52:20.441Z,100657.03
2018-10-06T04:54:50.222Z,100658.10
2018-10-06T04:57:20.049Z,100656.67
2018-10-06T04:59:48.977Z,100660.52
2018-10-06T05:02:17.987Z,100657.83
2018-10-06T05:04:50.077Z,100664.59
2018-10-06T05:07:19.014Z,100667.80
2018-10-06T05:09:48.977Z,100666.59
2018-10-06T05:12:17.886Z,100667.19
2018-10-06T05:14:46.794Z,100669.05
2018-10-06T05:17:16.785Z,100670.19
2018-10-06T05:19:57.594Z,100673.73
2018-10-06T05:22:26.579Z,100671.41
2018-10-06T05:24:55.507Z,100661.17
2018-10-06T05:27:25.023Z,100661.82
2018-10-06T05:29:53.982Z,100660.16
2018-10-06T05:32:22.929Z,100660.26
2018-10-06T05:34:51.932Z,100657.43
2018-10-06T05:37:21.155Z,100651.41
2018-10-06T05:39:50.420Z,100644.17
2018-10-06T05:42:19.377Z,100649.55
2018-10-06T05:44:48.368Z,100644.73
2018-10-06T05:47:19.110Z,100646.45
2018-10-06T05:49:48.038Z,100637.60
2018-10-06T05:52:17.891Z,100640.84
2018-10-06T05:54:46.859Z,100643.48
2018-10-06T05:57:15.796Z,100636.82
2018-10-06T05:59:44.712Z,100646.26
2018-10-06T06:02:14.187Z,100639.27
2018-10-06T06:04:43.219Z,100639.91
2018-10-06T06:07:12.127Z,100650.37
2018-10-06T06:09:41.256Z,100655.42
2018-10-06T06:12:10.186Z,100651.41
2018-10-06T06:14:39.870Z,100650.37
2018-10-06T06:17:08.900Z,100652.08
2018-10-06T06:19:37.882Z,100641.08
2018-10-06T06:22:06.924Z,100639.65
2018-10-06T06:24:35.862Z,100636.59
2018-10-06T06:27:04.843Z,100636.87
2018-10-06T06:29:33.752Z,100636.21
2018-10-06T06:32:02.707Z,100642.00
2018-10-06T06:34:32.732Z,100640.56
2018-10-06T06:37:01.691Z,100644.09
2018-10-06T06:39:30.605Z,100639.93
2018-10-06T06:42:00.682Z,100635.48
2018-10-06T06:44:29.800Z,100633.36
2018-10-06T06:46:58.597Z,100628.95
2018-10-06T06:49:29.031Z,100630.24
2018-10-06T06:51:58.307Z,100622.51
2018-10-06T06:54:27.237Z,100622.59
2018-10-06T06:56:56.404Z,100627.67
2018-10-06T06:59:25.342Z,100622.90
2018-10-06T07:01:54.271Z,100624.62
2018-10-06T07:04:27.785Z,100631.59
2018-10-06T07:07:05.903Z,100625.07
2018-10-06T07:09:34.865Z,100624.88
2018-10-06T07:12:03.778Z,100617.88
2018-10-06T07:14:32.726Z,100626.22
2018-10-06T07:17:01.946Z,100625.59
2018-10-06T07:19:31.597Z,100624.92
2018-10-06T07:22:02.685Z,100621.13
2018-10-06T07:24:36.566Z,100619.82
2018-10-06T07:32:32.859Z,100615.96
2018-10-06T07:35:01.774Z,100621.20
2018-10-06T07:37:30.718Z,100623.91
2018-10-06T07:40:06.759Z,100622.83
2018-10-06T07:43:25.514Z,100624.28
2018-10-06T07:45:57.953Z,100624.08
2018-10-06T07:48:27.273Z,100616.66
2018-10-06T07:50:56.241Z,100615.38
2018-10-06T07:53:30.196Z,100615.93
2018-10-06T07:55:59.131Z,100615.72
2018-10-06T07:58:28.090Z,100609.88
2018-10-06T08:00:57.976Z,100604.26
2018-10-06T08:03:27.113Z,100602.45
2018-10-06T08:05:57.660Z,100602.55
2018-10-06T08:08:30.320Z,100607.58
2018-10-06T08:11:01.050Z,100602.83
2018-10-06T08:13:30.173Z,100602.88
2018-10-06T08:16:00.325Z,100592.02
2018-10-06T08:18:44.643Z,100592.19
2018-10-06T08:21:32.035Z,100592.38
2018-10-06T08:24:01.124Z,100593.31
2018-10-06T08:26:30.070Z,100596.87
2018-10-06T08:29:00.405Z,100595.18
2018-10-06T08:31:29.702Z,100597.98
2018-10-06T08:33:58.662Z,100580.13
2018-10-06T08:36:27.704Z,100584.12
2018-10-06T08:38:59.946Z,100580.79
2018-10-06T08:41:31.679Z,100582.89
2018-10-06T08:44:00.633Z,100576.08
2018-10-06T08:46:30.189Z,100576.19
2018-10-06T08:48:59.241Z,100571.48
2018-10-06T08:51:28.184Z,100569.45
2018-10-06T08:53:57.115Z,100572.63
2018-10-06T08:56:26.115Z,100562.95
2018-10-06T08:58:55.038Z,100556.52
2018-10-06T09:01:24.691Z,100556.46
2018-10-06T09:03:54.009Z,100556.74
2018-10-06T09:06:22.974Z,100550.97
2018-10-06T09:08:51.905Z,100549.33
2018-10-06T09:11:20.880Z,100536.13
2018-10-06T09:13:49.897Z,100544.23
2018-10-06T09:16:18.856Z,100538.87
2018-10-06T09:18:47.790Z,100542.96
2018-10-06T09:21:17.349Z,100546.21
2018-10-06T09:23:46.342Z,100543.78
2018-10-06T09:26:15.252Z,100540.57
2018-10-06T09:28:44.325Z,100554.09
2018-10-06T09:31:13.277Z,100551.08
2018-10-06T09:33:42.250Z,100542.45
2018-10-06T09:36:11.361Z,100548.95
2018-10-06T09:38:40.301Z,100552.18
2018-10-06T09:41:09.352Z,100550.32
2018-10-06T09:43:38.372Z,100551.12
2018-10-06T09:46:07.375Z,100549.23
2018-10-06T09:48:36.332Z,100543.30
2018-10-06T09:51:05.251Z,100549.50
2018-10-06T09:53:34.316Z,100540.06
2018-10-06T09:56:03.211Z,100541.40
2018-10-06T09:58:32.139Z,100541.92
2018-10-06T10:01:06.575Z,100538.06
2018-10-06T10:03:40.926Z,100541.36
2018-10-06T10:06:10.057Z,100538.64
2018-10-06T10:08:39.021Z,100544.23
2018-10-06T10:11:07.982Z,100535.87
2018-10-06T10:13:37.849Z,100535.25
2018-10-06T10:16:07.510Z,100540.70
2018-10-06T10:18:36.467Z,100537.67
2018-10-06T10:21:05.430Z,100536.55
2018-10-06T10:23:34.367Z,100541.11
2018-10-06T10:26:03.381Z,100539.47
2018-10-06T10:28:32.427Z,100537.31
2018-10-06T10:31:01.297Z,100534.02
2018-10-06T10:33:30.263Z,100532.63
2018-10-06T10:35:59.159Z,100527.39
2018-10-06T10:38:28.081Z,100521.95
2018-10-06T10:40:57.043Z,100517.47
2018-10-06T10:43:25.987Z,100515.48
2018-10-06T10:45:54.905Z,100513.28
2018-10-06T10:48:24.703Z,100509.23
2018-10-06T10:50:53.602Z,100504.67
2018-10-06T10:53:22.559Z,100499.91
2018-10-06T10:55:51.510Z,100499.69
2018-10-06T10:58:20.433Z,100492.16
2018-10-06T11:00:49.446Z,100496.61
2018-10-06T11:03:18.434Z,100488.88
2018-10-06T11:05:47.437Z,100487.69
2018-10-06T11:08:16.949Z,100483.92
2018-10-06T11:10:45.905Z,100486.75
2018-10-06T11:13:14.837Z,100483.01
2018-10-06T11:15:43.832Z,100487.47
2018-10-06T11:18:12.777Z,100479.80
2018-10-06T11:20:41.821Z,100472.58
2018-10-06T11:23:10.751Z,100480.27
2018-10-06T11:25:39.681Z,100472.33
2018-10-06T11:28:08.661Z,100461.04
2018-10-06T11:30:37.586Z,100464.98
2018-10-06T11:33:06.994Z,100466.08
2018-10-06T11:35:35.917Z,100455.30
2018-10-06T11:38:05.481Z,100449.44
2018-10-06T11:40:34.463Z,100443.75
2018-10-06T11:43:03.449Z,100450.77
2018-10-06T11:45:32.436Z,100434.87
2018-10-06T11:48:01.356Z,100440.66
2018-10-06T11:50:30.278Z,100433.76
2018-10-06T11:52:59.418Z,100427.78
2018-10-06T11:55:28.380Z,100427.86
2018-10-06T11:57:57.310Z,100415.56
2018-10-06T12:00:26.371Z,100417.38
2018-10-06T12:02:55.251Z,100408.11
2018-10-06T12:05:24.215Z,100409.52
2018-10-06T12:07:53.435Z,100414.61
2018-10-06T12:10:22.368Z,100407.36
2018-10-06T12:12:51.289Z,100398.27
2018-10-06T12:15:20.230Z,100411.64
2018-10-06T12:17:49.164Z,100410.45
2018-10-06T12:20:18.194Z,100406.05
2018-10-06T12:22:47.077Z,100400.16
2018-10-06T12:25:15.992Z,100400.60
2018-10-06T12:27:44.950Z,100400.53
2018-10-06T12:30:13.937Z,100390.61
2018-10-06T12:32:42.900Z,100387.00
2018-10-06T12:35:11.944Z,100385.83
2018-10-06T12:37:40.838Z,100388.66
2018-10-06T12:40:09.822Z,100387.06
2018-10-06T12:42:38.737Z,100391.73
2018-10-06T12:45:07.846Z,100385.13
2018-10-06T12:47:37.035Z,100386.06
2018-10-06T12:50:05.974Z,100381.34
2018-10-06T12:52:34.934Z,100381.62
2018-10-06T12:55:03.891Z,100381.25
2018-10-06T12:57:32.836Z,100379.69
2018-10-06T13:00:01.815Z,100365.42
2018-10-06T13:02:30.712Z,100373.38
2018-10-06T13:04:59.678Z,100369.59
2018-10-06T13:07:28.613Z,100367.11
2018-10-06T13:09:57.544Z,100366.69
2018-10-06T13:12:26.563Z,100363.65
2018-10-06T13:14:55.529Z,100365.53
2018-10-06T13:17:24.421Z,100370.08
2018-10-06T13:19:53.382Z,100360.04
2018-10-06T13:22:22.384Z,100355.25
2018-10-06T13:24:51.364Z,100360.23
2018-10-06T13:27:20.343Z,100354.44
2018-10-06T13:29:58.753Z,100351.52
2018-10-06T13:32:28.071Z,100351.09
2018-10-06T13:34:57.784Z,100358.56
2018-10-06T13:37:26.696Z,100357.61
2018-10-06T13:39:55.993Z,100351.56
2018-10-06T13:42:25.119Z,100349.09
2018-10-06T13:44:54.074Z,100347.88
2018-10-06T13:47:22.999Z,100346.43
2018-10-06T13:49:51.943Z,100342.09
2018-10-06T13:52:20.937Z,100335.03
2018-10-06T13:54:50.983Z,100330.77
2018-10-06T13:57:19.962Z,100330.91
2018-10-06T13:59:48.897Z,100330.96
2018-10-06T14:02:17.864Z,100333.08
2018-10-06T14:04:46.823Z,100328.13
2018-10-06T14:07:15.751Z,100333.22
2018-10-06T14:09:44.705Z,100331.02
2018-10-06T14:12:49.163Z,100328.27
2018-10-06T14:15:18.193Z,100326.91
2018-10-06T14:17:47.149Z,100326.63
2018-10-06T14:20:16.118Z,100316.05
2018-10-06T14:22:45.074Z,100318.11
2018-10-06T14:25:14.901Z,100311.13
2018-10-06T14:27:43.836Z,100308.11
2018-10-06T14:30:18.279Z,100301.00
2018-10-06T14:32:47.230Z,100298.75
2018-10-06T14:35:16.265Z,100297.92
2018-10-06T14:37:45.206Z,100292.96
2018-10-06T14:40:14.161Z,100299.34
2018-10-06T14:43:26.562Z,100291.47
2018-10-06T14:45:55.511Z,100289.38
2018-10-06T14:48:24.420Z,100287.69
2018-10-06T14:50:54.274Z,100292.02
2018-10-06T14:53:23.245Z,100287.73
2018-10-06T14:55:52.214Z,100290.64
2018-10-06T14:58:21.155Z,100290.45
2018-10-06T15:00:50.076Z,100282.94
2018-10-06T15:03:19.278Z,100288.52
2018-10-06T15:05:48.312Z,100289.39
2018-10-06T15:08:17.288Z,100288.81
2018-10-06T15:10:46.200Z,100290.64
2018-10-06T15:13:15.131Z,100282.01
2018-10-06T15:15:44.181Z,100282.16
2018-10-06T15:18:13.050Z,100281.33
2018-10-06T15:20:41.968Z,100280.87
2018-10-06T15:23:10.935Z,100270.56
2018-10-06T15:25:39.873Z,100266.48
2018-10-06T15:28:08.810Z,100272.28
2018-10-06T15:30:37.724Z,100268.13
2018-10-06T15:33:06.782Z,100264.64
2018-10-06T15:35:35.688Z,100262.93
2018-10-06T15:38:04.658Z,100263.11
2018-10-06T15:40:40.233Z,100264.77
2018-10-06T15:43:09.169Z,100264.41
2018-10-06T15:45:38.066Z,100264.52
2018-10-06T15:48:07.010Z,100262.61
2018-10-06T15:50:35.967Z,100260.92
2018-10-06T15:53:04.939Z,100259.30
2018-10-06T15:55:33.897Z,100260.11
2018-10-06T15:58:03.010Z,100257.94
2018-10-06T16:00:31.907Z,100262.38
2018-10-06T16:03:00.904Z,100268.80
2018-10-06T16:05:29.946Z,100264.72
2018-10-06T16:07:58.918Z,100265.15
2018-10-06T16:10:27.844Z,100262.10
2018-10-06T16:12:56.775Z,100267.67
2018-10-06T16:15:25.754Z,100266.96
2018-10-06T16:17:54.726Z,100273.47
2018-10-06T16:20:23.667Z,100273.27
2018-10-06T16:22:52.623Z,100271.97
2018-10-06T16:25:21.586Z,100278.40
2018-10-06T16:27:50.508Z,100269.27
2018-10-06T16:30:19.453Z,100274.81
2018-10-06T16:32:48.442Z,100269.57
2018-10-06T16:35:17.419Z,100272.66
2018-10-06T16:37:46.360Z,100269.12
2018-10-06T16:40:15.291Z,100266.75
2018-10-06T16:42:44.217Z,100266.26
2018-10-06T16:45:13.173Z,100267.23
2018-10-06T16:47:42.089Z,100268.11
2018-10-06T16:50:11.047Z,100272.66
2018-10-06T16:52:40.146Z,100271.60
2018-10-06T16:55:09.086Z,100265.96
2018-10-06T16:57:38.074Z,100266.88
2018-10-06T17:00:07.081Z,100269.64
2018-10-06T17:02:36.025Z,100270.80
2018-10-06T17:05:05.163Z,100270.89
2018-10-06T17:07:34.134Z,100272.83
2018-10-06T17:10:03.096Z,100264.48
2018-10-06T17:12:32.055Z,100260.91
2018-10-06T17:15:00.998Z,100258.95
2018-10-06T17:17:30.005Z,100258.66
2018-10-06T17:19:59.012Z,100260.41
2018-10-06T17:22:27.927Z,100268.19
2018-10-06T17:24:57.047Z,100259.30
2018-10-06T17:27:25.965Z,100255.59
2018-10-06T17:29:54.908Z,100254.41
2018-10-06T17:32:23.875Z,100250.21
2018-10-06T17:34:52.915Z,100264.95
2018-10-06T17:37:22.663Z,100257.41
2018-10-06T17:39:51.583Z,100255.03
2018-10-06T17:42:20.569Z,100258.56
2018-10-06T17:44:49.508Z,100254.61
2018-10-06T17:47:18.447Z,100250.58
2018-10-06T17:49:47.446Z,100251.31
2018-10-06T17:52:16.351Z,100249.88
2018-10-06T17:54:45.593Z,100261.92
2018-10-06T17:57:14.506Z,100256.59
2018-10-06T17:59:43.425Z,100251.95
2018-10-06T18:02:12.409Z,100251.78
2018-10-06T18:04:41.507Z,100257.82
2018-10-06T18:07:10.468Z,100253.25
2018-10-06T18:09:39.390Z,100254.86
2018-10-06T18:12:08.435Z,100254.75
2018-10-06T18:14:37.419Z,100243.64
2018-10-06T18:17:06.317Z,100249.36
2018-10-06T18:19:35.286Z,100247.75
2018-10-06T18:22:04.231Z,100244.22
2018-10-06T18:24:33.272Z,100238.04
2018-10-06T18:27:02.301Z,100241.10
2018-10-06T18:29:31.224Z,100243.81
2018-10-06T18:32:00.277Z,100248.52
2018-10-06T18:34:29.235Z,100248.45
2018-10-06T18:36:58.374Z,100248.23
2018-10-06T18:39:27.219Z,100251.27
2018-10-06T18:41:56.144Z,100251.33
2018-10-06T18:44:25.095Z,100248.36
2018-10-06T18:46:54.115Z,100253.25
2018-10-06T18:49:23.194Z,100238.96
2018-10-06T18:51:52.058Z,100246.31
2018-10-06T18:54:21.029Z,100254.73
2018-10-06T18:56:49.977Z,100244.51
2018-10-06T18:59:19.280Z,100247.07
2018-10-06T19:01:48.671Z,100247.13
2018-10-06T19:04:18.043Z,100252.45
2018-10-06T19:06:47.331Z,100254.59
2018-10-06T19:09:16.609Z,100253.77
2018-10-06T19:11:45.861Z,100260.89
2018-10-06T19:14:15.128Z,100252.22
2018-10-06T19:16:44.490Z,100252.22
2018-10-06T19:19:13.848Z,100251.88
2018-10-06T19:21:43.141Z,100257.95
2018-10-06T19:24:12.412Z,100251.00
2018-10-06T19:26:41.726Z,100252.81
2018-10-06T19:29:11.832Z,100259.03
2018-10-06T19:31:41.065Z,100262.30
2018-10-06T19:34:10.358Z,100263.06
2018-10-06T19:36:39.568Z,100257.92
2018-10-06T19:39:09.419Z,100259.65
2018-10-06T19:41:39.211Z,100264.78
2018-10-06T19:44:08.464Z,100259.98
2018-10-06T19:46:37.907Z,100259.27
2018-10-06T19:49:07.173Z,100263.25
2018-10-06T19:51:36.507Z,100269.26
2018-10-06T19:54:06.772Z,100267.63
2018-10-06T19:56:36.062Z,100269.52
2018-10-06T19:59:05.331Z,100277.44
2018-10-06T20:01:34.581Z,100282.09
2018-10-06T20:04:03.879Z,100278.85
2018-10-06T20:06:33.129Z,100281.31
2018-10-06T20:09:02.414Z,100284.81
2018-10-06T20:11:31.664Z,100276.67
2018-10-06T20:14:00.943Z,100278.91
2018-10-06T20:16:30.185Z,100282.70
2018-10-06T20:18:59.548Z,100287.27
2018-10-06T20:21:28.834Z,100289.42
2018-10-06T20:23:58.246Z,100289.16
2018-10-06T20:26:27.208Z,100287.05
2018-10-06T20:28:56.155Z,100290.47
2018-10-06T20:31:25.133Z,100300.98
2018-10-06T20:33:54.049Z,100304.27
2018-10-06T20:36:23.023Z,100306.11
2018-10-06T20:38:52.068Z,100305.86
2018-10-06T20:41:21.005Z,100305.56
2018-10-06T20:43:51.044Z,100317.84
2018-10-06T20:46:20.007Z,100315.08
2018-10-06T20:48:48.952Z,100313.75
2018-10-06T20:51:17.894Z,100308.98
2018-10-06T20:53:46.852Z,100310.27
2018-10-06T20:56:15.950Z,100311.33
2018-10-06T20:58:44.901Z,100315.45
2018-10-06T21:01:13.827Z,100311.33
2018-10-06T21:03:42.781Z,100313.89
2018-10-06T21:06:11.786Z,100317.20
2018-10-06T21:08:40.726Z,100317.31
2018-10-06T21:11:09.750Z,100319.05
2018-10-06T21:13:38.742Z,100316.27
2018-10-06T21:16:07.661Z,100321.19
2018-10-06T21:18:36.627Z,100316.27
2018-10-06T21:21:05.575Z,100317.41
2018-10-06T21:23:34.482Z,100316.63
2018-10-06T21:26:03.478Z,100312.81
2018-10-06T21:28:32.426Z,100317.77
2018-10-06T21:31:01.371Z,100318.02
2018-10-06T21:33:30.368Z,100319.41
2018-10-06T21:35:59.318Z,100313.70
2018-10-06T21:38:28.292Z,100317.50
2018-10-06T21:40:57.379Z,100321.32
2018-10-06T21:43:26.379Z,100317.28
2018-10-06T21:45:55.791Z,100314.08
2018-10-06T21:48:24.816Z,100309.22
2018-10-06T21:50:53.831Z,100312.39
2018-10-06T21:53:22.765Z,100316.75
2018-10-06T21:55:51.736Z,100312.14
2018-10-06T21:58:20.743Z,100310.61
2018-10-06T22:00:53.891Z,100318.70
2018-10-06T22:03:22.888Z,100323.55
2018-10-06T22:05:51.879Z,100325.50
2018-10-06T22:08:20.874Z,100316.84
2018-10-06T22:10:49.855Z,100321.44
2018-10-06T22:13:18.830Z,100321.41
2018-10-06T22:15:47.783Z,100320.06
2018-10-06T22:18:16.770Z,100323.67
2018-10-06T22:20:45.734Z,100319.82
2018-10-06T22:23:15.000Z,100320.95
2018-10-06T22:25:44.604Z,100323.66
2018-10-06T22:28:13.573Z,100323.48
2018-10-06T22:30:42.609Z,100329.66
2018-10-06T22:33:11.597Z,100336.70
2018-10-06T22:35:40.663Z,100336.20
2018-10-06T22:38:09.605Z,100332.39
2018-10-06T22:40:38.573Z,100335.31
2018-10-06T22:43:07.511Z,100332.88
2018-10-06T22:45:36.464Z,100327.00
2018-10-06T22:48:05.416Z,100332.14
2018-10-06T22:50:34.402Z,100330.25
2018-10-06T22:53:03.878Z,100337.80
2018-10-06T22:55:32.865Z,100341.87
2018-10-06T22:58:01.816Z,100343.23
2018-10-06T23:00:30.787Z,100345.33
2018-10-06T23:02:59.771Z,100348.05
2018-10-06T23:05:28.755Z,100350.78
2018-10-06T23:07:57.769Z,100334.81
2018-10-06T23:10:26.784Z,100338.05
2018-10-06T23:12:55.729Z,100346.97
2018-10-06T23:15:24.676Z,100341.80
2018-10-06T23:17:53.608Z,100332.06
2018-10-06T23:20:22.640Z,100336.34
2018-10-06T23:22:51.601Z,100340.91
2018-10-06T23:25:20.525Z,100337.92
2018-10-06T23:27:49.517Z,100344.97
2018-10-06T23:30:18.510Z,100342.28
2018-10-06T23:32:48.076Z,100331.37
2018-10-06T23:35:17.050Z,100326.46
2018-10-06T23:37:45.975Z,100324.56
2018-10-06T23:40:14.934Z,100325.38
2018-10-06T23:42:43.899Z,100336.23
2018-10-06T23:45:12.822Z,100336.52
2018-10-06T23:47:41.799Z,100331.37
2018-10-06T23:50:10.753Z,100327.27
2018-10-06T23:52:39.724Z,100332.45
2018-10-06T23:55:08.669Z,100341.62
2018-10-06T23:57:37.660Z,100345.14
